TNCAMYNN

Guest
Details From TNCA - Reina Beatrix Intl
To MYNN - Nassau Intl
Flight Number -
Tags Generated
Created
Modified
Stats Distance 863 nm / 1,599 km
Max Altitude 0 ft / 0 m
Waypoints 3
Social Downloads 1
Likes 0
Share VATSIM

Download

Looking for another format? Having issues loading an existing format? Contact us
Advertisement - Login to hide

Notes

Generated

Route

TNCA ZQA15 MYNN

ID Type Via Altitude Latitude Longitude Leg Dist Tot Dist Heading (true) Name
O TNCA APT - 0 ft / 0 m 12.50439˚ -70.02747˚ - 0 nm - -
ZQA15 FIX - 0 ft / 0 m 24.88517˚ -77.34654˚ 851 nm 851 nm 332° / 329° -
O MYNN APT - 0 ft / 0 m 25.03595˚ -77.48200˚ 11 nm 863 nm 321° / 321° -

Altitude Profile

Advertisement - Login to hide

Weather


0- 5 10 15 20 25 30 35+ Temperature / ° C

Clouds and Precipitation
Forecast for 2017-12-13 18:00 UTC. Updated 2 hours ago

Ground ~20,000 ft ~40,000 ft Winds

TNCA

Details ICAO TNCA (AUA)
Name REINA BEATRIX INTL
Region Caribbean Netherlands, Aruba, Curaçao, Sint Maarten
Timezone America/Aruba (UTC-4.0)
Stats Elevation 60 ft / 18 m (AMSL)
Location 12.501389° -70.015220°
Runways 1
Magnetic Variation 10.770° W

METAR

TNCA 131400Z 12008KT 080V160 9999 FEW020 29/23 Q1015 A2999 NOSIG

Decode

TAF

TAF TNCA 131000Z 1312/1412 08008KT 9999 FEW020

Decode

Departure Runways

ID Width Length Bearing (true) Bearing (mag) Surface Threshold Offset Overrun Length
11 148 ft / 45 m 8,998 ft / 2,743 m 104.08° 114.85° Asphalt 0 ft / 0 m 184 ft / 56 m
29 148 ft / 45 m 8,998 ft / 2,743 m 284.09° 294.86° Asphalt 0 ft / 0 m 184 ft / 56 m

MYNN

Details ICAO MYNN (NAS)
Name Nassau Intl
Region Bahamas
Timezone America/Nassau (UTC-5.0)
Stats Elevation 16 ft / 5 m (AMSL)
Location 25.038596° -77.466621°
Runways 2
Magnetic Variation 8.218° W

METAR

MYNN 131400Z 28010KT 9999 FEW020 23/12 A3006

Decode

TAF

TAF MYNN 131120Z 1312/1412 27010G20KT 9999 SCT020 BECMG 1400/1402 VRB02KT

Decode

Destination Runways

ID Width Length Bearing (true) Bearing (mag) Surface Threshold Offset Overrun Length
09 151 ft / 46 m 8,311 ft / 2,533 m 89.62° 97.84° Asphalt 0 ft / 0 m 0 ft / 0 m
14 151 ft / 46 m 11,364 ft / 3,464 m 134.83° 143.05° Asphalt 226 ft / 69 m 0 ft / 0 m
27 151 ft / 46 m 8,311 ft / 2,533 m 269.64° 277.86° Asphalt 0 ft / 0 m 0 ft / 0 m
32 151 ft / 46 m 11,364 ft / 3,464 m 314.84° 323.06° Asphalt 0 ft / 0 m 0 ft / 0 m

Approach Navaids

Runway Type Ident Frequency Range Bearing (true) Bearing (mag) Slope Elevation
14 Localiser IZQA 110.10 MHz 18 nm / 33 km 134.83° 143.05° - 7 ft / 2 m (AMSL)
14 Glidescope IZQA 110.10 MHz 10 nm / 19 km 134.83° 143.05° 3.00° 8 ft / 2 m (AMSL)

Popular Alternatives